Terminal Aerodrome Forecast
Issued by NWS

Home | Current Version | Previous Version | Text Only | Print | Product List | Glossary On
Versions: 1 2 3 4 5 6 7 8 9 10 11 12 13 14
000
FTUS46 KSEW 170500
TAFCLM
TAF
KCLM 170536Z 1706/1806 VRB03KT P6SM -RA SCT015 OVC050
      TEMPO 1706/1710 4SM -RA BKN015 OVC050
     FM172100 29010KT P6SM -SHRA SCT015 BKN025 OVC040
     FM180200 29010KT P6SM SCT025 BKN040=

USA.gov is the U.S. government's official web portal to all federal, state and local government web resources and services.